sensor_id;sensor_type;location;lat;lon;timestamp;P1;durP1;ratioP1;P2;durP2;ratioP2
19605;SDS011;9950;50.168;8.210;2023-04-20T00:02:19;6.32;;;3.97;;
19605;SDS011;9950;50.168;8.210;2023-04-20T00:04:47;7.05;;;3.92;;
19605;SDS011;9950;50.168;8.210;2023-04-20T00:07:14;4.70;;;3.42;;
19605;SDS011;9950;50.168;8.210;2023-04-20T00:09:41;7.60;;;4.32;;
19605;SDS011;9950;50.168;8.210;2023-04-20T00:12:08;6.78;;;3.65;;
19605;SDS011;9950;50.168;8.210;2023-04-20T00:14:37;6.65;;;3.97;;
19605;SDS011;9950;50.168;8.210;2023-04-20T00:17:04;4.93;;;3.78;;
19605;SDS011;9950;50.168;8.210;2023-04-20T00:19:32;6.53;;;4.50;;
19605;SDS011;9950;50.168;8.210;2023-04-20T00:21:59;5.85;;;4.32;;
19605;SDS011;9950;50.168;8.210;2023-04-20T00:24:26;5.82;;;3.90;;
19605;SDS011;9950;50.168;8.210;2023-04-20T00:26:53;8.27;;;4.53;;
19605;SDS011;9950;50.168;8.210;2023-04-20T00:29:20;5.00;;;3.85;;
19605;SDS011;9950;50.168;8.210;2023-04-20T00:31:49;9.07;;;4.50;;
19605;SDS011;9950;50.168;8.210;2023-04-20T00:34:16;5.70;;;3.65;;
19605;SDS011;9950;50.168;8.210;2023-04-20T00:36:43;6.55;;;4.38;;
19605;SDS011;9950;50.168;8.210;2023-04-20T00:39:10;6.75;;;4.15;;
19605;SDS011;9950;50.168;8.210;2023-04-20T00:41:37;7.93;;;4.38;;
19605;SDS011;9950;50.168;8.210;2023-04-20T00:44:05;8.30;;;4.25;;
19605;SDS011;9950;50.168;8.210;2023-04-20T00:46:35;6.63;;;4.45;;
19605;SDS011;9950;50.168;8.210;2023-04-20T00:49:04;5.97;;;4.25;;
19605;SDS011;9950;50.168;8.210;2023-04-20T00:51:31;5.63;;;4.30;;
19605;SDS011;9950;50.168;8.210;2023-04-20T00:53:59;8.60;;;4.65;;
19605;SDS011;9950;50.168;8.210;2023-04-20T00:56:26;8.43;;;4.60;;
19605;SDS011;9950;50.168;8.210;2023-04-20T00:58:53;7.63;;;4.32;;
19605;SDS011;9950;50.168;8.210;2023-04-20T01:01:21;6.50;;;4.20;;
19605;SDS011;9950;50.168;8.210;2023-04-20T01:03:48;6.70;;;4.25;;
19605;SDS011;9950;50.168;8.210;2023-04-20T01:06:16;6.80;;;4.28;;
19605;SDS011;9950;50.168;8.210;2023-04-20T01:08:45;9.30;;;4.28;;
19605;SDS011;9950;50.168;8.210;2023-04-20T01:11:12;8.25;;;4.72;;
19605;SDS011;9950;50.168;8.210;2023-04-20T01:13:39;6.20;;;4.30;;
19605;SDS011;9950;50.168;8.210;2023-04-20T01:16:06;6.32;;;4.38;;
19605;SDS011;9950;50.168;8.210;2023-04-20T01:18:40;6.25;;;4.15;;
19605;SDS011;9950;50.168;8.210;2023-04-20T01:21:08;5.55;;;4.28;;
19605;SDS011;9950;50.168;8.210;2023-04-20T01:23:36;6.43;;;4.70;;
19605;SDS011;9950;50.168;8.210;2023-04-20T01:26:04;9.85;;;4.82;;
19605;SDS011;9950;50.168;8.210;2023-04-20T01:28:32;6.97;;;4.35;;
19605;SDS011;9950;50.168;8.210;2023-04-20T01:30:59;6.25;;;4.10;;
19605;SDS011;9950;50.168;8.210;2023-04-20T01:33:26;7.78;;;4.15;;
19605;SDS011;9950;50.168;8.210;2023-04-20T01:35:53;7.03;;;4.00;;
19605;SDS011;9950;50.168;8.210;2023-04-20T01:38:21;6.75;;;4.13;;
19605;SDS011;9950;50.168;8.210;2023-04-20T01:40:50;6.38;;;3.92;;
19605;SDS011;9950;50.168;8.210;2023-04-20T01:43:17;7.95;;;4.18;;
19605;SDS011;9950;50.168;8.210;2023-04-20T01:45:45;7.68;;;4.22;;
19605;SDS011;9950;50.168;8.210;2023-04-20T01:48:12;9.05;;;4.82;;
19605;SDS011;9950;50.168;8.210;2023-04-20T01:50:39;7.50;;;4.82;;
19605;SDS011;9950;50.168;8.210;2023-04-20T01:53:06;8.98;;;4.85;;
19605;SDS011;9950;50.168;8.210;2023-04-20T01:55:34;8.55;;;5.38;;
19605;SDS011;9950;50.168;8.210;2023-04-20T01:58:03;8.27;;;4.75;;
19605;SDS011;9950;50.168;8.210;2023-04-20T02:00:30;8.18;;;4.72;;
19605;SDS011;9950;50.168;8.210;2023-04-20T02:02:57;8.35;;;4.68;;
19605;SDS011;9950;50.168;8.210;2023-04-20T02:05:25;6.22;;;4.13;;
19605;SDS011;9950;50.168;8.210;2023-04-20T02:07:52;10.30;;;4.88;;
19605;SDS011;9950;50.168;8.210;2023-04-20T02:10:20;9.27;;;4.85;;
19605;SDS011;9950;50.168;8.210;2023-04-20T02:12:47;8.27;;;4.88;;
19605;SDS011;9950;50.168;8.210;2023-04-20T02:15:16;9.50;;;4.43;;
19605;SDS011;9950;50.168;8.210;2023-04-20T02:17:43;7.95;;;4.45;;
19605;SDS011;9950;50.168;8.210;2023-04-20T02:20:11;6.20;;;4.55;;
19605;SDS011;9950;50.168;8.210;2023-04-20T02:22:38;8.52;;;4.88;;
19605;SDS011;9950;50.168;8.210;2023-04-20T02:25:06;8.98;;;5.40;;
19605;SDS011;9950;50.168;8.210;2023-04-20T02:27:34;8.05;;;4.78;;
19605;SDS011;9950;50.168;8.210;2023-04-20T02:30:02;6.95;;;4.50;;
19605;SDS011;9950;50.168;8.210;2023-04-20T02:32:31;10.50;;;4.72;;
19605;SDS011;9950;50.168;8.210;2023-04-20T02:34:59;7.45;;;4.80;;
19605;SDS011;9950;50.168;8.210;2023-04-20T02:37:26;7.60;;;4.78;;
19605;SDS011;9950;50.168;8.210;2023-04-20T02:39:53;7.15;;;4.57;;
19605;SDS011;9950;50.168;8.210;2023-04-20T02:42:20;6.32;;;4.43;;
19605;SDS011;9950;50.168;8.210;2023-04-20T02:44:48;9.15;;;5.40;;
19605;SDS011;9950;50.168;8.210;2023-04-20T02:47:16;8.07;;;5.00;;
19605;SDS011;9950;50.168;8.210;2023-04-20T02:49:45;7.15;;;4.30;;
19605;SDS011;9950;50.168;8.210;2023-04-20T02:52:12;6.60;;;4.70;;
19605;SDS011;9950;50.168;8.210;2023-04-20T02:54:40;7.75;;;5.50;;
19605;SDS011;9950;50.168;8.210;2023-04-20T02:57:07;7.97;;;5.03;;
19605;SDS011;9950;50.168;8.210;2023-04-20T02:59:35;8.35;;;5.22;;
19605;SDS011;9950;50.168;8.210;2023-04-20T03:02:03;7.78;;;5.32;;
19605;SDS011;9950;50.168;8.210;2023-04-20T03:04:30;9.75;;;5.55;;
19605;SDS011;9950;50.168;8.210;2023-04-20T03:07:00;10.75;;;5.65;;
19605;SDS011;9950;50.168;8.210;2023-04-20T03:09:28;10.45;;;6.18;;
19605;SDS011;9950;50.168;8.210;2023-04-20T03:11:56;10.70;;;6.03;;
19605;SDS011;9950;50.168;8.210;2023-04-20T03:14:23;9.80;;;6.03;;
19605;SDS011;9950;50.168;8.210;2023-04-20T03:16:51;10.95;;;5.90;;
19605;SDS011;9950;50.168;8.210;2023-04-20T03:19:18;9.32;;;5.85;;
19605;SDS011;9950;50.168;8.210;2023-04-20T03:21:45;10.93;;;5.78;;
19605;SDS011;9950;50.168;8.210;2023-04-20T03:24:14;8.48;;;5.85;;
19605;SDS011;9950;50.168;8.210;2023-04-20T03:26:41;10.15;;;6.10;;
19605;SDS011;9950;50.168;8.210;2023-04-20T03:29:08;9.23;;;5.60;;
19605;SDS011;9950;50.168;8.210;2023-04-20T03:31:35;10.50;;;5.80;;
19605;SDS011;9950;50.168;8.210;2023-04-20T03:34:03;8.13;;;6.43;;
19605;SDS011;9950;50.168;8.210;2023-04-20T03:36:30;8.25;;;5.68;;
19605;SDS011;9950;50.168;8.210;2023-04-20T03:38:57;8.45;;;5.80;;
19605;SDS011;9950;50.168;8.210;2023-04-20T03:41:26;12.75;;;6.35;;
19605;SDS011;9950;50.168;8.210;2023-04-20T03:43:53;12.15;;;6.00;;
19605;SDS011;9950;50.168;8.210;2023-04-20T03:46:20;13.95;;;6.45;;
19605;SDS011;9950;50.168;8.210;2023-04-20T03:48:47;15.15;;;6.93;;
19605;SDS011;9950;50.168;8.210;2023-04-20T03:51:14;13.43;;;6.55;;
19605;SDS011;9950;50.168;8.210;2023-04-20T03:53:42;10.70;;;5.90;;
19605;SDS011;9950;50.168;8.210;2023-04-20T03:56:09;9.82;;;6.43;;
19605;SDS011;9950;50.168;8.210;2023-04-20T03:58:37;12.63;;;6.80;;
19605;SDS011;9950;50.168;8.210;2023-04-20T04:01:05;11.27;;;6.78;;
19605;SDS011;9950;50.168;8.210;2023-04-20T04:03:33;11.07;;;6.40;;
19605;SDS011;9950;50.168;8.210;2023-04-20T04:06:01;9.50;;;7.15;;
19605;SDS011;9950;50.168;8.210;2023-04-20T04:08:28;13.18;;;7.60;;
19605;SDS011;9950;50.168;8.210;2023-04-20T04:10:56;12.15;;;7.57;;
19605;SDS011;9950;50.168;8.210;2023-04-20T04:13:23;11.18;;;7.18;;
19605;SDS011;9950;50.168;8.210;2023-04-20T04:15:52;11.88;;;7.45;;
19605;SDS011;9950;50.168;8.210;2023-04-20T04:18:19;12.07;;;7.72;;
19605;SDS011;9950;50.168;8.210;2023-04-20T04:20:46;12.07;;;7.28;;
19605;SDS011;9950;50.168;8.210;2023-04-20T04:23:13;15.60;;;7.65;;
19605;SDS011;9950;50.168;8.210;2023-04-20T04:25:41;12.63;;;7.63;;
19605;SDS011;9950;50.168;8.210;2023-04-20T04:28:08;12.60;;;8.25;;
19605;SDS011;9950;50.168;8.210;2023-04-20T04:30:36;13.10;;;8.45;;
19605;SDS011;9950;50.168;8.210;2023-04-20T04:33:04;15.13;;;8.32;;
19605;SDS011;9950;50.168;8.210;2023-04-20T04:35:31;12.65;;;7.78;;
19605;SDS011;9950;50.168;8.210;2023-04-20T04:37:59;12.90;;;8.60;;
19605;SDS011;9950;50.168;8.210;2023-04-20T04:40:26;14.90;;;9.30;;
19605;SDS011;9950;50.168;8.210;2023-04-20T04:42:53;12.90;;;8.82;;
19605;SDS011;9950;50.168;8.210;2023-04-20T04:45:21;16.63;;;9.15;;
19605;SDS011;9950;50.168;8.210;2023-04-20T04:47:49;14.82;;;8.85;;
19605;SDS011;9950;50.168;8.210;2023-04-20T04:50:19;17.02;;;10.70;;
19605;SDS011;9950;50.168;8.210;2023-04-20T04:52:46;16.30;;;8.88;;
19605;SDS011;9950;50.168;8.210;2023-04-20T04:55:14;13.40;;;8.90;;
19605;SDS011;9950;50.168;8.210;2023-04-20T04:57:41;13.80;;;9.02;;
19605;SDS011;9950;50.168;8.210;2023-04-20T05:00:08;13.43;;;9.05;;
19605;SDS011;9950;50.168;8.210;2023-04-20T05:02:36;14.82;;;8.93;;
19605;SDS011;9950;50.168;8.210;2023-04-20T05:05:04;13.30;;;9.20;;
19605;SDS011;9950;50.168;8.210;2023-04-20T05:07:33;14.00;;;9.10;;
19605;SDS011;9950;50.168;8.210;2023-04-20T05:10:02;17.42;;;9.73;;
19605;SDS011;9950;50.168;8.210;2023-04-20T05:12:29;16.67;;;9.75;;
19605;SDS011;9950;50.168;8.210;2023-04-20T05:14:57;13.27;;;9.25;;
19605;SDS011;9950;50.168;8.210;2023-04-20T05:17:24;12.20;;;8.60;;
19605;SDS011;9950;50.168;8.210;2023-04-20T05:19:51;12.45;;;9.10;;
19605;SDS011;9950;50.168;8.210;2023-04-20T05:22:18;11.88;;;8.88;;
19605;SDS011;9950;50.168;8.210;2023-04-20T05:24:47;13.07;;;9.48;;
19605;SDS011;9950;50.168;8.210;2023-04-20T05:27:14;13.00;;;9.48;;
19605;SDS011;9950;50.168;8.210;2023-04-20T05:29:42;13.38;;;9.07;;
19605;SDS011;9950;50.168;8.210;2023-04-20T05:32:09;12.38;;;8.50;;
19605;SDS011;9950;50.168;8.210;2023-04-20T05:34:36;11.52;;;8.80;;
19605;SDS011;9950;50.168;8.210;2023-04-20T05:37:04;14.00;;;9.25;;
19605;SDS011;9950;50.168;8.210;2023-04-20T05:39:31;10.73;;;8.07;;
19605;SDS011;9950;50.168;8.210;2023-04-20T05:41:59;12.95;;;8.35;;
19605;SDS011;9950;50.168;8.210;2023-04-20T05:44:27;12.48;;;8.38;;
19605;SDS011;9950;50.168;8.210;2023-04-20T05:46:54;11.73;;;8.45;;
19605;SDS011;9950;50.168;8.210;2023-04-20T05:49:21;12.18;;;8.73;;
19605;SDS011;9950;50.168;8.210;2023-04-20T05:51:48;11.68;;;8.75;;
19605;SDS011;9950;50.168;8.210;2023-04-20T05:54:16;11.80;;;8.68;;
19605;SDS011;9950;50.168;8.210;2023-04-20T05:56:43;10.20;;;8.20;;
19605;SDS011;9950;50.168;8.210;2023-04-20T05:59:12;12.75;;;9.15;;
19605;SDS011;9950;50.168;8.210;2023-04-20T06:01:39;12.50;;;8.80;;
19605;SDS011;9950;50.168;8.210;2023-04-20T06:04:06;9.60;;;7.40;;
19605;SDS011;9950;50.168;8.210;2023-04-20T06:06:33;10.57;;;7.93;;
19605;SDS011;9950;50.168;8.210;2023-04-20T06:09:01;9.88;;;6.90;;
19605;SDS011;9950;50.168;8.210;2023-04-20T06:11:29;9.73;;;7.22;;
19605;SDS011;9950;50.168;8.210;2023-04-20T06:13:56;10.35;;;7.60;;
19605;SDS011;9950;50.168;8.210;2023-04-20T06:16:25;9.13;;;6.80;;
19605;SDS011;9950;50.168;8.210;2023-04-20T06:18:54;8.73;;;6.95;;
19605;SDS011;9950;50.168;8.210;2023-04-20T06:21:21;8.80;;;7.03;;
19605;SDS011;9950;50.168;8.210;2023-04-20T06:23:51;7.60;;;6.32;;
19605;SDS011;9950;50.168;8.210;2023-04-20T06:26:18;7.47;;;6.38;;
19605;SDS011;9950;50.168;8.210;2023-04-20T06:28:46;9.88;;;6.68;;
19605;SDS011;9950;50.168;8.210;2023-04-20T06:31:13;10.05;;;6.85;;
19605;SDS011;9950;50.168;8.210;2023-04-20T06:33:42;9.98;;;6.68;;
19605;SDS011;9950;50.168;8.210;2023-04-20T06:36:09;10.32;;;6.70;;
19605;SDS011;9950;50.168;8.210;2023-04-20T06:38:36;9.65;;;6.38;;
19605;SDS011;9950;50.168;8.210;2023-04-20T06:41:04;8.25;;;6.68;;
19605;SDS011;9950;50.168;8.210;2023-04-20T06:43:32;9.18;;;6.60;;
19605;SDS011;9950;50.168;8.210;2023-04-20T06:45:59;8.57;;;6.75;;
19605;SDS011;9950;50.168;8.210;2023-04-20T06:48:26;9.18;;;6.50;;
19605;SDS011;9950;50.168;8.210;2023-04-20T06:50:55;8.38;;;6.55;;
19605;SDS011;9950;50.168;8.210;2023-04-20T06:53:22;10.27;;;6.97;;
19605;SDS011;9950;50.168;8.210;2023-04-20T06:55:50;8.98;;;6.60;;
19605;SDS011;9950;50.168;8.210;2023-04-20T06:58:19;7.97;;;6.45;;
19605;SDS011;9950;50.168;8.210;2023-04-20T07:00:47;8.02;;;6.32;;
19605;SDS011;9950;50.168;8.210;2023-04-20T07:03:14;8.48;;;6.55;;
19605;SDS011;9950;50.168;8.210;2023-04-20T07:05:42;9.95;;;6.45;;
19605;SDS011;9950;50.168;8.210;2023-04-20T07:08:11;7.97;;;6.40;;
19605;SDS011;9950;50.168;8.210;2023-04-20T07:10:39;8.30;;;6.30;;
19605;SDS011;9950;50.168;8.210;2023-04-20T07:13:06;8.20;;;6.30;;
19605;SDS011;9950;50.168;8.210;2023-04-20T07:15:34;8.52;;;6.07;;
19605;SDS011;9950;50.168;8.210;2023-04-20T07:18:01;7.50;;;5.65;;
19605;SDS011;9950;50.168;8.210;2023-04-20T07:20:28;8.27;;;6.00;;
19605;SDS011;9950;50.168;8.210;2023-04-20T07:22:56;8.65;;;6.22;;
19605;SDS011;9950;50.168;8.210;2023-04-20T07:25:24;7.28;;;5.78;;
19605;SDS011;9950;50.168;8.210;2023-04-20T07:27:51;10.68;;;6.15;;
19605;SDS011;9950;50.168;8.210;2023-04-20T07:30:19;7.53;;;5.90;;
19605;SDS011;9950;50.168;8.210;2023-04-20T07:32:46;10.73;;;7.95;;
19605;SDS011;9950;50.168;8.210;2023-04-20T07:35:13;8.43;;;6.57;;
19605;SDS011;9950;50.168;8.210;2023-04-20T07:37:40;7.78;;;6.05;;
19605;SDS011;9950;50.168;8.210;2023-04-20T07:40:08;11.48;;;7.07;;
19605;SDS011;9950;50.168;8.210;2023-04-20T07:42:36;11.55;;;8.05;;
19605;SDS011;9950;50.168;8.210;2023-04-20T07:45:04;10.75;;;7.22;;
19605;SDS011;9950;50.168;8.210;2023-04-20T07:47:32;10.55;;;7.57;;
19605;SDS011;9950;50.168;8.210;2023-04-20T07:49:59;10.57;;;7.43;;
19605;SDS011;9950;50.168;8.210;2023-04-20T07:52:27;9.52;;;7.78;;
19605;SDS011;9950;50.168;8.210;2023-04-20T07:54:54;12.60;;;7.88;;
19605;SDS011;9950;50.168;8.210;2023-04-20T07:57:23;11.15;;;8.27;;
19605;SDS011;9950;50.168;8.210;2023-04-20T07:59:51;11.18;;;8.50;;
19605;SDS011;9950;50.168;8.210;2023-04-20T08:02:19;12.82;;;8.63;;
19605;SDS011;9950;50.168;8.210;2023-04-20T08:04:46;11.88;;;8.35;;
19605;SDS011;9950;50.168;8.210;2023-04-20T08:07:13;13.02;;;8.68;;
19605;SDS011;9950;50.168;8.210;2023-04-20T08:09:41;11.88;;;8.43;;
19605;SDS011;9950;50.168;8.210;2023-04-20T08:12:09;13.60;;;9.00;;
19605;SDS011;9950;50.168;8.210;2023-04-20T08:14:36;11.00;;;8.02;;
19605;SDS011;9950;50.168;8.210;2023-04-20T08:17:05;11.55;;;8.68;;
19605;SDS011;9950;50.168;8.210;2023-04-20T08:19:33;11.45;;;8.38;;
19605;SDS011;9950;50.168;8.210;2023-04-20T08:22:00;11.32;;;7.85;;
19605;SDS011;9950;50.168;8.210;2023-04-20T08:24:27;11.80;;;8.10;;
19605;SDS011;9950;50.168;8.210;2023-04-20T08:26:55;10.52;;;7.30;;
19605;SDS011;9950;50.168;8.210;2023-04-20T08:29:23;11.45;;;7.60;;
19605;SDS011;9950;50.168;8.210;2023-04-20T08:31:50;10.98;;;7.25;;
19605;SDS011;9950;50.168;8.210;2023-04-20T08:34:19;11.68;;;7.05;;
19605;SDS011;9950;50.168;8.210;2023-04-20T08:36:46;10.93;;;7.30;;
19605;SDS011;9950;50.168;8.210;2023-04-20T08:39:17;11.05;;;7.38;;
19605;SDS011;9950;50.168;8.210;2023-04-20T08:41:45;8.77;;;6.90;;
19605;SDS011;9950;50.168;8.210;2023-04-20T08:44:14;9.98;;;6.75;;
19605;SDS011;9950;50.168;8.210;2023-04-20T08:46:41;8.95;;;6.55;;
19605;SDS011;9950;50.168;8.210;2023-04-20T08:49:12;8.27;;;6.43;;
19605;SDS011;9950;50.168;8.210;2023-04-20T08:51:42;9.75;;;6.68;;
19605;SDS011;9950;50.168;8.210;2023-04-20T08:54:10;9.48;;;6.53;;
19605;SDS011;9950;50.168;8.210;2023-04-20T08:56:38;9.02;;;6.80;;
19605;SDS011;9950;50.168;8.210;2023-04-20T08:59:06;10.02;;;6.78;;
19605;SDS011;9950;50.168;8.210;2023-04-20T09:01:34;9.48;;;6.80;;
19605;SDS011;9950;50.168;8.210;2023-04-20T09:04:13;8.60;;;6.82;;
19605;SDS011;9950;50.168;8.210;2023-04-20T09:06:43;9.65;;;6.97;;
19605;SDS011;9950;50.168;8.210;2023-04-20T09:09:10;11.63;;;7.35;;
19605;SDS011;9950;50.168;8.210;2023-04-20T09:11:38;11.90;;;7.47;;
19605;SDS011;9950;50.168;8.210;2023-04-20T09:14:06;10.95;;;7.95;;
19605;SDS011;9950;50.168;8.210;2023-04-20T09:16:47;10.30;;;7.55;;
19605;SDS011;9950;50.168;8.210;2023-04-20T09:19:19;11.80;;;7.30;;
19605;SDS011;9950;50.168;8.210;2023-04-20T09:21:48;13.03;;;9.37;;
19605;SDS011;9950;50.168;8.210;2023-04-20T09:24:19;11.27;;;7.90;;
19605;SDS011;9950;50.168;8.210;2023-04-20T09:26:46;9.65;;;7.53;;
19605;SDS011;9950;50.168;8.210;2023-04-20T09:29:17;9.85;;;6.65;;
19605;SDS011;9950;50.168;8.210;2023-04-20T09:31:44;11.27;;;7.25;;
19605;SDS011;9950;50.168;8.210;2023-04-20T09:34:12;9.07;;;6.95;;
19605;SDS011;9950;50.168;8.210;2023-04-20T09:36:40;8.93;;;6.60;;
19605;SDS011;9950;50.168;8.210;2023-04-20T09:39:09;8.40;;;6.68;;
19605;SDS011;9950;50.168;8.210;2023-04-20T09:41:38;10.88;;;6.80;;
19605;SDS011;9950;50.168;8.210;2023-04-20T09:44:05;10.45;;;7.28;;
19605;SDS011;9950;50.168;8.210;2023-04-20T09:46:33;14.35;;;7.20;;
19605;SDS011;9950;50.168;8.210;2023-04-20T09:49:02;8.68;;;6.55;;
19605;SDS011;9950;50.168;8.210;2023-04-20T09:51:30;9.27;;;6.85;;
19605;SDS011;9950;50.168;8.210;2023-04-20T09:53:58;8.45;;;6.85;;
19605;SDS011;9950;50.168;8.210;2023-04-20T09:56:27;10.15;;;6.90;;
19605;SDS011;9950;50.168;8.210;2023-04-20T09:58:55;11.50;;;7.03;;
19605;SDS011;9950;50.168;8.210;2023-04-20T10:01:22;9.35;;;6.55;;
19605;SDS011;9950;50.168;8.210;2023-04-20T10:03:50;10.80;;;6.95;;
19605;SDS011;9950;50.168;8.210;2023-04-20T10:06:21;9.07;;;6.22;;
19605;SDS011;9950;50.168;8.210;2023-04-20T10:08:49;9.27;;;6.70;;
19605;SDS011;9950;50.168;8.210;2023-04-20T10:11:23;10.88;;;7.13;;
19605;SDS011;9950;50.168;8.210;2023-04-20T10:13:52;9.55;;;6.85;;
19605;SDS011;9950;50.168;8.210;2023-04-20T10:16:19;9.85;;;6.45;;
19605;SDS011;9950;50.168;8.210;2023-04-20T10:18:59;8.57;;;6.20;;
19605;SDS011;9950;50.168;8.210;2023-04-20T10:21:27;8.65;;;6.60;;
19605;SDS011;9950;50.168;8.210;2023-04-20T10:23:56;10.10;;;7.05;;
19605;SDS011;9950;50.168;8.210;2023-04-20T10:26:34;11.35;;;6.90;;
19605;SDS011;9950;50.168;8.210;2023-04-20T10:29:04;8.43;;;6.25;;
19605;SDS011;9950;50.168;8.210;2023-04-20T10:31:36;8.98;;;6.22;;
19605;SDS011;9950;50.168;8.210;2023-04-20T10:34:04;8.02;;;5.80;;
19605;SDS011;9950;50.168;8.210;2023-04-20T10:36:32;7.22;;;6.30;;
19605;SDS011;9950;50.168;8.210;2023-04-20T10:39:11;7.95;;;6.32;;
19605;SDS011;9950;50.168;8.210;2023-04-20T10:41:48;7.97;;;5.53;;
19605;SDS011;9950;50.168;8.210;2023-04-20T10:44:18;10.63;;;6.38;;
19605;SDS011;9950;50.168;8.210;2023-04-20T10:46:47;9.00;;;6.50;;
19605;SDS011;9950;50.168;8.210;2023-04-20T10:49:14;8.90;;;5.95;;
19605;SDS011;9950;50.168;8.210;2023-04-20T10:51:45;8.55;;;6.57;;
19605;SDS011;9950;50.168;8.210;2023-04-20T10:54:12;7.18;;;5.72;;
19605;SDS011;9950;50.168;8.210;2023-04-20T10:56:40;8.27;;;5.80;;
19605;SDS011;9950;50.168;8.210;2023-04-20T10:59:07;9.02;;;5.95;;
19605;SDS011;9950;50.168;8.210;2023-04-20T11:01:36;7.60;;;5.38;;
19605;SDS011;9950;50.168;8.210;2023-04-20T11:04:04;7.47;;;5.90;;
19605;SDS011;9950;50.168;8.210;2023-04-20T11:06:32;9.50;;;5.40;;
19605;SDS011;9950;50.168;8.210;2023-04-20T11:08:59;6.18;;;5.47;;
19605;SDS011;9950;50.168;8.210;2023-04-20T11:11:27;7.60;;;6.22;;
19605;SDS011;9950;50.168;8.210;2023-04-20T11:14:04;8.48;;;6.20;;
19605;SDS011;9950;50.168;8.210;2023-04-20T11:16:32;9.88;;;6.05;;
19605;SDS011;9950;50.168;8.210;2023-04-20T11:19:01;8.70;;;5.43;;
19605;SDS011;9950;50.168;8.210;2023-04-20T11:21:36;7.35;;;5.78;;
19605;SDS011;9950;50.168;8.210;2023-04-20T11:24:04;8.43;;;5.60;;
19605;SDS011;9950;50.168;8.210;2023-04-20T11:26:37;6.95;;;5.47;;
19605;SDS011;9950;50.168;8.210;2023-04-20T11:29:06;8.10;;;5.88;;
19605;SDS011;9950;50.168;8.210;2023-04-20T11:31:33;6.70;;;5.10;;
19605;SDS011;9950;50.168;8.210;2023-04-20T11:34:02;7.28;;;5.93;;
19605;SDS011;9950;50.168;8.210;2023-04-20T11:36:32;7.00;;;5.30;;
19605;SDS011;9950;50.168;8.210;2023-04-20T11:39:07;7.78;;;5.68;;
19605;SDS011;9950;50.168;8.210;2023-04-20T11:41:37;8.52;;;5.55;;
19605;SDS011;9950;50.168;8.210;2023-04-20T11:44:06;7.65;;;5.32;;
19605;SDS011;9950;50.168;8.210;2023-04-20T11:46:34;8.73;;;5.63;;
19605;SDS011;9950;50.168;8.210;2023-04-20T11:49:03;8.02;;;5.75;;
19605;SDS011;9950;50.168;8.210;2023-04-20T11:51:31;6.50;;;5.03;;
19605;SDS011;9950;50.168;8.210;2023-04-20T11:53:58;6.82;;;5.22;;
19605;SDS011;9950;50.168;8.210;2023-04-20T11:56:25;7.18;;;5.72;;
19605;SDS011;9950;50.168;8.210;2023-04-20T11:58:52;7.82;;;6.10;;
19605;SDS011;9950;50.168;8.210;2023-04-20T12:01:20;11.20;;;6.00;;
19605;SDS011;9950;50.168;8.210;2023-04-20T12:03:47;8.07;;;6.43;;
19605;SDS011;9950;50.168;8.210;2023-04-20T12:06:16;7.40;;;5.53;;
19605;SDS011;9950;50.168;8.210;2023-04-20T12:08:43;7.53;;;5.82;;
19605;SDS011;9950;50.168;8.210;2023-04-20T12:11:12;8.32;;;5.75;;
19605;SDS011;9950;50.168;8.210;2023-04-20T12:13:41;10.52;;;6.13;;
19605;SDS011;9950;50.168;8.210;2023-04-20T12:16:08;9.20;;;6.07;;
19605;SDS011;9950;50.168;8.210;2023-04-20T12:18:35;7.95;;;5.80;;
19605;SDS011;9950;50.168;8.210;2023-04-20T12:21:02;7.78;;;5.47;;
19605;SDS011;9950;50.168;8.210;2023-04-20T12:23:31;8.73;;;5.60;;
19605;SDS011;9950;50.168;8.210;2023-04-20T12:26:00;8.68;;;6.13;;
19605;SDS011;9950;50.168;8.210;2023-04-20T12:28:28;10.18;;;6.88;;
19605;SDS011;9950;50.168;8.210;2023-04-20T12:30:55;9.13;;;6.40;;
19605;SDS011;9950;50.168;8.210;2023-04-20T12:33:22;9.65;;;6.80;;
19605;SDS011;9950;50.168;8.210;2023-04-20T12:35:50;8.63;;;6.93;;
19605;SDS011;9950;50.168;8.210;2023-04-20T12:38:17;7.82;;;6.00;;
19605;SDS011;9950;50.168;8.210;2023-04-20T12:40:45;7.53;;;5.90;;
19605;SDS011;9950;50.168;8.210;2023-04-20T12:43:13;10.15;;;5.60;;
19605;SDS011;9950;50.168;8.210;2023-04-20T12:45:40;7.28;;;5.15;;
19605;SDS011;9950;50.168;8.210;2023-04-20T12:48:07;7.68;;;5.70;;
19605;SDS011;9950;50.168;8.210;2023-04-20T12:50:34;8.05;;;5.85;;
19605;SDS011;9950;50.168;8.210;2023-04-20T12:53:02;5.78;;;5.10;;
19605;SDS011;9950;50.168;8.210;2023-04-20T12:55:29;6.75;;;5.32;;
19605;SDS011;9950;50.168;8.210;2023-04-20T12:57:58;5.70;;;4.88;;
19605;SDS011;9950;50.168;8.210;2023-04-20T13:00:25;7.40;;;4.65;;
19605;SDS011;9950;50.168;8.210;2023-04-20T13:02:52;5.88;;;3.60;;
19605;SDS011;9950;50.168;8.210;2023-04-20T13:05:20;4.20;;;3.33;;
19605;SDS011;9950;50.168;8.210;2023-04-20T13:07:47;4.72;;;3.63;;
19605;SDS011;9950;50.168;8.210;2023-04-20T13:10:15;4.70;;;3.70;;
19605;SDS011;9950;50.168;8.210;2023-04-20T13:12:43;5.47;;;4.55;;
19605;SDS011;9950;50.168;8.210;2023-04-20T13:15:11;5.05;;;4.10;;
19605;SDS011;9950;50.168;8.210;2023-04-20T13:17:39;5.32;;;4.60;;
19605;SDS011;9950;50.168;8.210;2023-04-20T13:20:06;4.93;;;4.22;;
19605;SDS011;9950;50.168;8.210;2023-04-20T13:22:34;5.90;;;4.82;;
19605;SDS011;9950;50.168;8.210;2023-04-20T13:25:01;4.35;;;3.95;;
19605;SDS011;9950;50.168;8.210;2023-04-20T13:27:28;4.30;;;3.90;;
19605;SDS011;9950;50.168;8.210;2023-04-20T13:29:56;5.05;;;4.50;;
19605;SDS011;9950;50.168;8.210;2023-04-20T13:32:25;5.88;;;4.70;;
19605;SDS011;9950;50.168;8.210;2023-04-20T13:34:53;5.88;;;4.35;;
19605;SDS011;9950;50.168;8.210;2023-04-20T13:37:20;5.00;;;4.47;;
19605;SDS011;9950;50.168;8.210;2023-04-20T13:39:48;4.97;;;4.35;;
19605;SDS011;9950;50.168;8.210;2023-04-20T13:42:15;4.82;;;4.28;;
19605;SDS011;9950;50.168;8.210;2023-04-20T13:44:43;6.38;;;4.18;;
19605;SDS011;9950;50.168;8.210;2023-04-20T13:47:10;4.10;;;3.70;;
19605;SDS011;9950;50.168;8.210;2023-04-20T13:49:39;5.55;;;4.43;;
19605;SDS011;9950;50.168;8.210;2023-04-20T13:52:06;6.43;;;4.25;;
19605;SDS011;9950;50.168;8.210;2023-04-20T13:54:33;6.68;;;4.57;;
19605;SDS011;9950;50.168;8.210;2023-04-20T13:57:00;5.22;;;4.10;;
19605;SDS011;9950;50.168;8.210;2023-04-20T13:59:27;4.95;;;3.90;;
19605;SDS011;9950;50.168;8.210;2023-04-20T14:01:55;4.20;;;3.80;;
19605;SDS011;9950;50.168;8.210;2023-04-20T14:04:22;4.20;;;3.00;;
19605;SDS011;9950;50.168;8.210;2023-04-20T14:06:50;4.75;;;3.13;;
19605;SDS011;9950;50.168;8.210;2023-04-20T14:09:18;5.85;;;3.50;;
19605;SDS011;9950;50.168;8.210;2023-04-20T14:11:45;5.00;;;3.97;;
19605;SDS011;9950;50.168;8.210;2023-04-20T14:14:12;7.30;;;4.40;;
19605;SDS011;9950;50.168;8.210;2023-04-20T14:16:43;6.53;;;4.35;;
19605;SDS011;9950;50.168;8.210;2023-04-20T14:19:10;5.43;;;4.72;;
19605;SDS011;9950;50.168;8.210;2023-04-20T14:21:38;7.25;;;5.57;;
19605;SDS011;9950;50.168;8.210;2023-04-20T14:24:09;8.20;;;6.47;;
19605;SDS011;9950;50.168;8.210;2023-04-20T14:26:36;6.93;;;6.05;;
19605;SDS011;9950;50.168;8.210;2023-04-20T14:29:04;8.05;;;5.90;;
19605;SDS011;9950;50.168;8.210;2023-04-20T14:31:32;6.25;;;5.38;;
19605;SDS011;9950;50.168;8.210;2023-04-20T14:33:59;6.95;;;5.97;;
19605;SDS011;9950;50.168;8.210;2023-04-20T14:36:27;6.82;;;5.45;;
19605;SDS011;9950;50.168;8.210;2023-04-20T14:38:54;8.57;;;5.07;;
19605;SDS011;9950;50.168;8.210;2023-04-20T14:41:23;5.90;;;5.03;;
19605;SDS011;9950;50.168;8.210;2023-04-20T14:43:50;7.20;;;5.25;;
19605;SDS011;9950;50.168;8.210;2023-04-20T14:46:18;6.07;;;4.88;;
19605;SDS011;9950;50.168;8.210;2023-04-20T14:48:45;6.93;;;4.88;;
19605;SDS011;9950;50.168;8.210;2023-04-20T14:51:13;6.40;;;5.10;;
19605;SDS011;9950;50.168;8.210;2023-04-20T14:53:40;7.22;;;5.38;;
19605;SDS011;9950;50.168;8.210;2023-04-20T14:56:07;6.68;;;5.35;;
19605;SDS011;9950;50.168;8.210;2023-04-20T14:58:36;5.43;;;4.70;;
19605;SDS011;9950;50.168;8.210;2023-04-20T15:01:06;7.00;;;5.28;;
19605;SDS011;9950;50.168;8.210;2023-04-20T15:03:33;8.80;;;4.60;;